sensor_id;sensor_type;location;lat;lon;timestamp;pressure;altitude;pressure_sealevel;temperature;humidity
47524;BME280;33253;42.144;25.884;2022-10-15T00:03:31;100678.28;;;14.19;79.19
47524;BME280;33253;42.144;25.884;2022-10-15T00:06:03;100676.66;;;14.24;78.96
47524;BME280;33253;42.144;25.884;2022-10-15T00:08:28;100675.78;;;14.22;78.83
47524;BME280;33253;42.144;25.884;2022-10-15T00:10:54;100676.59;;;14.21;78.60
47524;BME280;33253;42.144;25.884;2022-10-15T00:13:19;100667.09;;;14.21;78.82
47524;BME280;33253;42.144;25.884;2022-10-15T00:15:45;100669.63;;;14.18;78.90
47524;BME280;33253;42.144;25.884;2022-10-15T00:18:10;100672.28;;;14.21;79.04
47524;BME280;33253;42.144;25.884;2022-10-15T00:20:35;100670.47;;;14.19;78.93
47524;BME280;33253;42.144;25.884;2022-10-15T00:23:01;100675.56;;;14.14;79.34
47524;BME280;33253;42.144;25.884;2022-10-15T00:25:26;100672.22;;;14.18;78.97
47524;BME280;33253;42.144;25.884;2022-10-15T00:27:52;100671.22;;;14.13;79.47
47524;BME280;33253;42.144;25.884;2022-10-15T00:30:17;100659.88;;;14.10;78.89
47524;BME280;33253;42.144;25.884;2022-10-15T00:32:43;100658.09;;;14.07;79.00
47524;BME280;33253;42.144;25.884;2022-10-15T00:35:08;100643.06;;;13.95;79.46
47524;BME280;33253;42.144;25.884;2022-10-15T00:37:34;100651.69;;;13.94;79.90
47524;BME280;33253;42.144;25.884;2022-10-15T00:39:59;100651.75;;;13.96;80.00
47524;BME280;33253;42.144;25.884;2022-10-15T00:42:24;100640.31;;;13.89;79.40
47524;BME280;33253;42.144;25.884;2022-10-15T00:44:55;100663.94;;;14.00;79.21
47524;BME280;33253;42.144;25.884;2022-10-15T00:47:42;100660.41;;;13.96;79.38
47524;BME280;33253;42.144;25.884;2022-10-15T00:50:23;100658.66;;;13.97;79.67
47524;BME280;33253;42.144;25.884;2022-10-15T00:53:02;100662.88;;;13.93;79.90
47524;BME280;33253;42.144;25.884;2022-10-15T00:55:36;100663.00;;;13.96;79.59
47524;BME280;33253;42.144;25.884;2022-10-15T00:58:12;100660.38;;;13.95;79.41
47524;BME280;33253;42.144;25.884;2022-10-15T01:00:39;100657.66;;;13.91;79.49
47524;BME280;33253;42.144;25.884;2022-10-15T01:03:05;100663.84;;;13.97;79.39
47524;BME280;33253;42.144;25.884;2022-10-15T01:05:31;100665.59;;;13.96;79.15
47524;BME280;33253;42.144;25.884;2022-10-15T01:07:57;100658.56;;;13.92;79.55
47524;BME280;33253;42.144;25.884;2022-10-15T01:10:26;100660.28;;;13.93;79.63
47524;BME280;33253;42.144;25.884;2022-10-15T01:15:55;100669.00;;;13.95;78.94
47524;BME280;33253;42.144;25.884;2022-10-15T01:18:32;100665.56;;;13.95;78.80
47524;BME280;33253;42.144;25.884;2022-10-15T01:21:33;100656.53;;;13.82;78.73
47524;BME280;33253;42.144;25.884;2022-10-15T01:27:27;100664.41;;;13.83;78.89
47524;BME280;33253;42.144;25.884;2022-10-15T01:30:17;100652.94;;;13.77;79.05
47524;BME280;33253;42.144;25.884;2022-10-15T01:32:50;100638.56;;;13.56;78.89
47524;BME280;33253;42.144;25.884;2022-10-15T01:40:38;100664.16;;;13.75;78.76
47524;BME280;33253;42.144;25.884;2022-10-15T01:43:11;100667.63;;;13.74;78.05
47524;BME280;33253;42.144;25.884;2022-10-15T01:45:47;100666.81;;;13.77;78.32
47524;BME280;33253;42.144;25.884;2022-10-15T01:48:14;100638.69;;;13.61;77.62
47524;BME280;33253;42.144;25.884;2022-10-15T01:50:45;100673.63;;;13.73;77.56
47524;BME280;33253;42.144;25.884;2022-10-15T01:53:13;100674.31;;;13.66;77.65
47524;BME280;33253;42.144;25.884;2022-10-15T01:55:41;100676.91;;;13.66;78.01
47524;BME280;33253;42.144;25.884;2022-10-15T01:58:10;100677.91;;;13.71;77.45
47524;BME280;33253;42.144;25.884;2022-10-15T02:00:38;100680.50;;;13.71;77.37
47524;BME280;33253;42.144;25.884;2022-10-15T02:03:05;100680.50;;;13.71;77.49
47524;BME280;33253;42.144;25.884;2022-10-15T02:05:41;100686.44;;;13.67;77.07
47524;BME280;33253;42.144;25.884;2022-10-15T02:11:46;100672.41;;;13.61;77.03
47524;BME280;33253;42.144;25.884;2022-10-15T02:14:19;100684.66;;;13.65;76.87
47524;BME280;33253;42.144;25.884;2022-10-15T02:16:55;100703.88;;;13.73;77.19
47524;BME280;33253;42.144;25.884;2022-10-15T02:22:26;100695.81;;;13.62;77.33
47524;BME280;33253;42.144;25.884;2022-10-15T02:25:04;100702.00;;;13.67;76.99
47524;BME280;33253;42.144;25.884;2022-10-15T02:27:31;100698.41;;;13.62;76.72
47524;BME280;33253;42.144;25.884;2022-10-15T02:30:00;100702.84;;;13.66;76.60
47524;BME280;33253;42.144;25.884;2022-10-15T02:32:27;100710.44;;;13.60;76.60
47524;BME280;33253;42.144;25.884;2022-10-15T02:34:54;100711.91;;;13.50;77.17
47524;BME280;33253;42.144;25.884;2022-10-15T02:37:22;100704.91;;;13.48;76.72
47524;BME280;33253;42.144;25.884;2022-10-15T02:39:48;100641.69;;;13.14;76.47
47524;BME280;33253;42.144;25.884;2022-10-15T02:42:15;100710.28;;;13.54;76.63
47524;BME280;33253;42.144;25.884;2022-10-15T02:44:41;100705.94;;;13.54;76.90
47524;BME280;33253;42.144;25.884;2022-10-15T02:47:07;100701.63;;;13.53;76.59
47524;BME280;33253;42.144;25.884;2022-10-15T02:49:32;100704.25;;;13.55;76.60
47524;BME280;33253;42.144;25.884;2022-10-15T02:51:58;100699.91;;;13.54;76.54
47524;BME280;33253;42.144;25.884;2022-10-15T02:54:23;100668.81;;;13.26;76.67
47524;BME280;33253;42.144;25.884;2022-10-15T02:56:49;100695.28;;;13.43;77.16
47524;BME280;33253;42.144;25.884;2022-10-15T02:59:14;100693.53;;;13.42;77.08
47524;BME280;33253;42.144;25.884;2022-10-15T03:01:40;100693.41;;;13.39;77.07
47524;BME280;33253;42.144;25.884;2022-10-15T03:04:05;100692.31;;;13.31;77.32
47524;BME280;33253;42.144;25.884;2022-10-15T03:06:31;100695.72;;;13.30;77.50
47524;BME280;33253;42.144;25.884;2022-10-15T03:08:56;100696.47;;;13.26;77.37
47524;BME280;33253;42.144;25.884;2022-10-15T03:11:22;100693.81;;;13.24;77.59
47524;BME280;33253;42.144;25.884;2022-10-15T03:13:47;100696.38;;;13.23;77.77
47524;BME280;33253;42.144;25.884;2022-10-15T03:16:12;100689.50;;;13.23;77.47
47524;BME280;33253;42.144;25.884;2022-10-15T03:18:38;100689.56;;;13.26;77.28
47524;BME280;33253;42.144;25.884;2022-10-15T03:21:03;100685.03;;;13.19;77.73
47524;BME280;33253;42.144;25.884;2022-10-15T03:23:30;100684.94;;;13.16;77.58
47524;BME280;33253;42.144;25.884;2022-10-15T03:25:56;100690.19;;;13.18;77.70
47524;BME280;33253;42.144;25.884;2022-10-15T03:28:21;100685.09;;;13.21;77.64
47524;BME280;33253;42.144;25.884;2022-10-15T03:30:47;100693.94;;;13.27;77.50
47524;BME280;33253;42.144;25.884;2022-10-15T03:33:13;100689.34;;;13.19;77.78
47524;BME280;33253;42.144;25.884;2022-10-15T03:35:38;100707.56;;;13.22;77.71
47524;BME280;33253;42.144;25.884;2022-10-15T03:38:04;100704.28;;;13.27;77.40
47524;BME280;33253;42.144;25.884;2022-10-15T03:40:30;100672.78;;;13.14;77.20
47524;BME280;33253;42.144;25.884;2022-10-15T03:42:56;100667.72;;;13.18;76.72
47524;BME280;33253;42.144;25.884;2022-10-15T03:45:22;100709.28;;;13.49;77.11
47524;BME280;33253;42.144;25.884;2022-10-15T03:47:48;100704.66;;;13.38;76.93
47524;BME280;33253;42.144;25.884;2022-10-15T03:50:14;100684.31;;;13.23;76.72
47524;BME280;33253;42.144;25.884;2022-10-15T03:52:40;100706.38;;;13.39;77.28
47524;BME280;33253;42.144;25.884;2022-10-15T03:55:06;100699.38;;;13.37;77.28
47524;BME280;33253;42.144;25.884;2022-10-15T03:57:32;100705.84;;;13.21;77.33
47524;BME280;33253;42.144;25.884;2022-10-15T03:59:57;100711.09;;;13.24;77.57
47524;BME280;33253;42.144;25.884;2022-10-15T04:02:23;100666.44;;;13.04;77.10
47524;BME280;33253;42.144;25.884;2022-10-15T04:04:53;100707.88;;;13.31;76.72
47524;BME280;33253;42.144;25.884;2022-10-15T04:07:19;100709.53;;;13.29;76.45
47524;BME280;33253;42.144;25.884;2022-10-15T04:09:44;100700.88;;;13.29;76.30
47524;BME280;33253;42.144;25.884;2022-10-15T04:12:10;100715.94;;;13.40;76.05
47524;BME280;33253;42.144;25.884;2022-10-15T04:14:35;100703.69;;;13.36;75.19
47524;BME280;33253;42.144;25.884;2022-10-15T04:17:02;100720.47;;;13.48;74.88
47524;BME280;33253;42.144;25.884;2022-10-15T04:19:27;100721.09;;;13.39;75.16
47524;BME280;33253;42.144;25.884;2022-10-15T04:21:53;100712.72;;;13.20;75.83
47524;BME280;33253;42.144;25.884;2022-10-15T04:24:18;100718.00;;;13.23;75.86
47524;BME280;33253;42.144;25.884;2022-10-15T04:26:44;100722.41;;;13.26;75.87
47524;BME280;33253;42.144;25.884;2022-10-15T04:29:09;100703.63;;;13.06;76.37
47524;BME280;33253;42.144;25.884;2022-10-15T04:31:35;100720.50;;;13.20;75.77
47524;BME280;33253;42.144;25.884;2022-10-15T04:34:02;100714.75;;;13.31;75.37
47524;BME280;33253;42.144;25.884;2022-10-15T04:36:27;100687.09;;;13.30;74.59
47524;BME280;33253;42.144;25.884;2022-10-15T04:38:53;100719.97;;;13.59;73.13
47524;BME280;33253;42.144;25.884;2022-10-15T04:41:18;100715.53;;;13.57;73.18
47524;BME280;33253;42.144;25.884;2022-10-15T04:43:44;100686.19;;;13.29;73.40
47524;BME280;33253;42.144;25.884;2022-10-15T04:46:09;100713.78;;;13.27;74.22
47524;BME280;33253;42.144;25.884;2022-10-15T04:48:37;100703.25;;;13.21;74.23
47524;BME280;33253;42.144;25.884;2022-10-15T04:51:23;100695.50;;;13.22;74.05
47524;BME280;33253;42.144;25.884;2022-10-15T04:53:48;100734.91;;;13.39;75.25
47524;BME280;33253;42.144;25.884;2022-10-15T04:56:17;100737.28;;;13.33;74.90
47524;BME280;33253;42.144;25.884;2022-10-15T04:58:44;100734.16;;;13.15;75.50
47524;BME280;33253;42.144;25.884;2022-10-15T05:01:13;100733.50;;;13.22;76.53
47524;BME280;33253;42.144;25.884;2022-10-15T05:03:41;100722.03;;;13.14;75.50
47524;BME280;33253;42.144;25.884;2022-10-15T05:06:09;100731.88;;;13.25;75.99
47524;BME280;33253;42.144;25.884;2022-10-15T05:08:36;100729.44;;;13.30;75.49
47524;BME280;33253;42.144;25.884;2022-10-15T05:11:07;100691.75;;;13.13;74.83
47524;BME280;33253;42.144;25.884;2022-10-15T05:13:33;100730.63;;;13.40;74.99
47524;BME280;33253;42.144;25.884;2022-10-15T05:16:19;100735.03;;;13.42;74.88
47524;BME280;33253;42.144;25.884;2022-10-15T05:18:47;100692.41;;;13.05;75.13
47524;BME280;33253;42.144;25.884;2022-10-15T05:21:13;100737.28;;;13.33;74.77
47524;BME280;33253;42.144;25.884;2022-10-15T05:23:40;100726.44;;;13.45;75.21
47524;BME280;33253;42.144;25.884;2022-10-15T05:26:07;100692.59;;;13.11;75.13
47524;BME280;33253;42.144;25.884;2022-10-15T05:28:34;100742.19;;;13.22;75.97
47524;BME280;33253;42.144;25.884;2022-10-15T05:31:11;100734.94;;;13.12;75.94
47524;BME280;33253;42.144;25.884;2022-10-15T05:33:37;100742.69;;;13.12;75.94
47524;BME280;33253;42.144;25.884;2022-10-15T05:36:20;100738.50;;;13.16;75.25
47524;BME280;33253;42.144;25.884;2022-10-15T05:38:51;100737.47;;;13.10;75.86
47524;BME280;33253;42.144;25.884;2022-10-15T05:41:17;100694.34;;;12.84;75.63
47524;BME280;33253;42.144;25.884;2022-10-15T05:43:47;100743.63;;;13.14;76.23
47524;BME280;33253;42.144;25.884;2022-10-15T05:46:13;100745.66;;;13.24;76.47
47524;BME280;33253;42.144;25.884;2022-10-15T05:48:38;100700.16;;;13.05;76.53
47524;BME280;33253;42.144;25.884;2022-10-15T05:51:06;100744.88;;;13.27;76.07
47524;BME280;33253;42.144;25.884;2022-10-15T05:53:32;100739.22;;;13.39;77.26
47524;BME280;33253;42.144;25.884;2022-10-15T05:55:57;100750.47;;;13.39;75.82
47524;BME280;33253;42.144;25.884;2022-10-15T05:58:27;100743.56;;;13.38;76.49
47524;BME280;33253;42.144;25.884;2022-10-15T06:00:58;100757.66;;;13.48;76.19
47524;BME280;33253;42.144;25.884;2022-10-15T06:03:24;100748.16;;;13.49;75.28
47524;BME280;33253;42.144;25.884;2022-10-15T06:05:50;100775.31;;;13.60;74.62
47524;BME280;33253;42.144;25.884;2022-10-15T06:08:16;100777.22;;;13.66;74.94
47524;BME280;33253;42.144;25.884;2022-10-15T06:10:42;100770.94;;;13.59;74.52
47524;BME280;33253;42.144;25.884;2022-10-15T06:13:08;100778.16;;;13.69;74.79
47524;BME280;33253;42.144;25.884;2022-10-15T06:15:37;100779.13;;;13.73;74.56
47524;BME280;33253;42.144;25.884;2022-10-15T06:18:02;100781.81;;;13.76;74.24
47524;BME280;33253;42.144;25.884;2022-10-15T06:20:28;100785.31;;;13.78;73.55
47524;BME280;33253;42.144;25.884;2022-10-15T06:22:57;100782.06;;;13.85;74.60
47524;BME280;33253;42.144;25.884;2022-10-15T06:25:23;100775.19;;;13.86;74.82
47524;BME280;33253;42.144;25.884;2022-10-15T06:27:49;100773.91;;;13.71;75.22
47524;BME280;33253;42.144;25.884;2022-10-15T06:30:14;100791.31;;;13.75;75.20
47524;BME280;33253;42.144;25.884;2022-10-15T06:32:46;100762.16;;;13.54;74.46
47524;BME280;33253;42.144;25.884;2022-10-15T06:35:12;100794.06;;;13.82;75.02
47524;BME280;33253;42.144;25.884;2022-10-15T06:37:37;100781.09;;;13.82;75.73
47524;BME280;33253;42.144;25.884;2022-10-15T06:40:03;100799.56;;;13.91;74.92
47524;BME280;33253;42.144;25.884;2022-10-15T06:42:28;100798.78;;;13.95;76.26
47524;BME280;33253;42.144;25.884;2022-10-15T06:44:54;100790.25;;;13.99;75.10
47524;BME280;33253;42.144;25.884;2022-10-15T06:47:19;100797.34;;;14.05;72.82
47524;BME280;33253;42.144;25.884;2022-10-15T06:49:45;100794.91;;;14.11;71.80
47524;BME280;33253;42.144;25.884;2022-10-15T06:52:10;100763.25;;;13.93;70.76
47524;BME280;33253;42.144;25.884;2022-10-15T06:54:35;100802.13;;;14.21;71.12
47524;BME280;33253;42.144;25.884;2022-10-15T06:57:01;100805.84;;;14.31;69.68
47524;BME280;33253;42.144;25.884;2022-10-15T06:59:26;100806.00;;;14.37;69.41
47524;BME280;33253;42.144;25.884;2022-10-15T07:01:52;100808.72;;;14.40;69.28
47524;BME280;33253;42.144;25.884;2022-10-15T07:04:18;100811.41;;;14.45;69.73
47524;BME280;33253;42.144;25.884;2022-10-15T07:06:44;100808.94;;;14.50;70.03
47524;BME280;33253;42.144;25.884;2022-10-15T07:09:09;100799.41;;;14.50;68.27
47524;BME280;33253;42.144;25.884;2022-10-15T07:11:35;100809.16;;;14.59;68.01
47524;BME280;33253;42.144;25.884;2022-10-15T07:14:00;100804.75;;;14.56;66.89
47524;BME280;33253;42.144;25.884;2022-10-15T07:16:26;100806.50;;;14.56;66.31
47524;BME280;33253;42.144;25.884;2022-10-15T07:18:52;100810.09;;;14.61;65.91
47524;BME280;33253;42.144;25.884;2022-10-15T07:21:17;100818.09;;;14.69;66.39
47524;BME280;33253;42.144;25.884;2022-10-15T07:23:42;100810.38;;;14.70;65.71
47524;BME280;33253;42.144;25.884;2022-10-15T07:26:08;100806.16;;;14.76;66.63
47524;BME280;33253;42.144;25.884;2022-10-15T07:28:33;100807.03;;;14.76;66.22
47524;BME280;33253;42.144;25.884;2022-10-15T07:31:00;100796.63;;;14.75;66.90
47524;BME280;33253;42.144;25.884;2022-10-15T07:33:26;100803.94;;;14.91;64.71
47524;BME280;33253;42.144;25.884;2022-10-15T07:35:51;100810.94;;;14.94;64.56
47524;BME280;33253;42.144;25.884;2022-10-15T07:38:17;100802.28;;;14.95;63.07
47524;BME280;33253;42.144;25.884;2022-10-15T07:40:42;100803.44;;;15.06;63.51
47524;BME280;33253;42.144;25.884;2022-10-15T07:43:08;100813.94;;;15.11;64.44
47524;BME280;33253;42.144;25.884;2022-10-15T07:45:33;100812.31;;;15.14;63.26
47524;BME280;33253;42.144;25.884;2022-10-15T07:48:00;100800.84;;;15.06;63.91
47524;BME280;33253;42.144;25.884;2022-10-15T07:50:25;100816.00;;;15.24;64.11
47524;BME280;33253;42.144;25.884;2022-10-15T07:52:51;100816.16;;;15.30;63.17
47524;BME280;33253;42.144;25.884;2022-10-15T07:55:16;100813.44;;;15.26;62.63
47524;BME280;33253;42.144;25.884;2022-10-15T07:57:42;100793.50;;;15.26;63.44
47524;BME280;33253;42.144;25.884;2022-10-15T08:00:08;100803.19;;;15.33;62.73
47524;BME280;33253;42.144;25.884;2022-10-15T08:02:34;100772.34;;;15.11;63.78
47524;BME280;33253;42.144;25.884;2022-10-15T08:04:59;100811.28;;;15.46;62.96
47524;BME280;33253;42.144;25.884;2022-10-15T08:07:24;100806.22;;;15.52;63.66
47524;BME280;33253;42.144;25.884;2022-10-15T08:09:50;100809.59;;;15.48;63.43
47524;BME280;33253;42.144;25.884;2022-10-15T08:12:16;100803.44;;;15.44;63.47
47524;BME280;33253;42.144;25.884;2022-10-15T08:14:41;100813.22;;;15.56;63.83
47524;BME280;33253;42.144;25.884;2022-10-15T08:17:07;100816.78;;;15.60;63.56
47524;BME280;33253;42.144;25.884;2022-10-15T08:19:32;100816.06;;;15.65;64.08
47524;BME280;33253;42.144;25.884;2022-10-15T08:21:58;100781.88;;;15.50;64.82
47524;BME280;33253;42.144;25.884;2022-10-15T08:24:24;100814.59;;;15.78;63.93
47524;BME280;33253;42.144;25.884;2022-10-15T08:26:49;100818.19;;;15.83;63.55
47524;BME280;33253;42.144;25.884;2022-10-15T08:29:15;100808.00;;;15.94;63.33
47524;BME280;33253;42.144;25.884;2022-10-15T08:31:40;100810.00;;;16.08;62.81
47524;BME280;33253;42.144;25.884;2022-10-15T08:34:07;100809.34;;;16.18;62.58
47524;BME280;33253;42.144;25.884;2022-10-15T08:36:33;100815.63;;;16.28;64.38
47524;BME280;33253;42.144;25.884;2022-10-15T08:38:58;100805.28;;;16.32;62.88
47524;BME280;33253;42.144;25.884;2022-10-15T08:41:37;100801.91;;;16.38;62.05
47524;BME280;33253;42.144;25.884;2022-10-15T08:44:06;100802.91;;;16.45;62.25
47524;BME280;33253;42.144;25.884;2022-10-15T08:46:36;100802.94;;;16.48;61.17
47524;BME280;33253;42.144;25.884;2022-10-15T08:49:03;100815.16;;;16.52;60.63
47524;BME280;33253;42.144;25.884;2022-10-15T08:51:37;100810.16;;;16.63;60.37
47524;BME280;33253;42.144;25.884;2022-10-15T08:54:05;100810.28;;;16.69;61.27
47524;BME280;33253;42.144;25.884;2022-10-15T08:56:39;100817.44;;;16.82;60.15
47524;BME280;33253;42.144;25.884;2022-10-15T09:02:12;100824.59;;;16.91;61.03
47524;BME280;33253;42.144;25.884;2022-10-15T09:04:56;100807.19;;;16.92;60.75
47524;BME280;33253;42.144;25.884;2022-10-15T09:09:51;100781.88;;;16.86;59.83
47524;BME280;33253;42.144;25.884;2022-10-15T09:15:04;100818.00;;;17.13;60.49
47524;BME280;33253;42.144;25.884;2022-10-15T09:17:34;100817.00;;;17.08;61.78
47524;BME280;33253;42.144;25.884;2022-10-15T09:20:04;100799.38;;;16.93;62.19
47524;BME280;33253;42.144;25.884;2022-10-15T09:22:32;100814.97;;;16.90;63.22
47524;BME280;33253;42.144;25.884;2022-10-15T09:25:14;100781.47;;;16.63;62.86
47524;BME280;33253;42.144;25.884;2022-10-15T09:27:40;100808.72;;;16.80;64.07
47524;BME280;33253;42.144;25.884;2022-10-15T09:44:36;100819.13;;;16.79;68.25
47524;BME280;33253;42.144;25.884;2022-10-15T09:47:13;100826.03;;;16.77;67.88
47524;BME280;33253;42.144;25.884;2022-10-15T09:49:39;100823.44;;;16.77;67.56
47524;BME280;33253;42.144;25.884;2022-10-15T09:55:41;100820.59;;;16.63;67.94
47524;BME280;33253;42.144;25.884;2022-10-15T09:58:23;100824.09;;;16.65;68.83
47524;BME280;33253;42.144;25.884;2022-10-15T10:03:15;100827.69;;;16.72;68.12
47524;BME280;33253;42.144;25.884;2022-10-15T10:05:41;100824.22;;;16.71;67.80
47524;BME280;33253;42.144;25.884;2022-10-15T10:10:53;100820.94;;;16.85;67.80
47524;BME280;33253;42.144;25.884;2022-10-15T10:13:36;100826.38;;;16.95;66.68
47524;BME280;33253;42.144;25.884;2022-10-15T10:16:09;100809.75;;;16.90;66.94
47524;BME280;33253;42.144;25.884;2022-10-15T10:18:35;100832.53;;;16.99;67.23
47524;BME280;33253;42.144;25.884;2022-10-15T10:21:10;100815.78;;;16.88;65.78
47524;BME280;33253;42.144;25.884;2022-10-15T10:23:45;100826.38;;;16.94;65.85
47524;BME280;33253;42.144;25.884;2022-10-15T10:26:11;100821.16;;;16.95;66.59
47524;BME280;33253;42.144;25.884;2022-10-15T10:28:52;100826.47;;;17.02;65.60
47524;BME280;33253;42.144;25.884;2022-10-15T10:31:29;100811.69;;;17.02;64.90
47524;BME280;33253;42.144;25.884;2022-10-15T10:33:59;100810.00;;;17.03;64.57
47524;BME280;33253;42.144;25.884;2022-10-15T10:36:33;100797.81;;;17.03;64.97
47524;BME280;33253;42.144;25.884;2022-10-15T10:42:00;100787.56;;;17.16;63.58
47524;BME280;33253;42.144;25.884;2022-10-15T10:49:34;100808.06;;;17.49;64.47
47524;BME280;33253;42.144;25.884;2022-10-15T10:52:01;100799.38;;;17.50;63.12
47524;BME280;33253;42.144;25.884;2022-10-15T10:54:27;100795.19;;;17.63;62.22
47524;BME280;33253;42.144;25.884;2022-10-15T10:56:55;100799.78;;;17.81;61.67
47524;BME280;33253;42.144;25.884;2022-10-15T10:59:35;100802.59;;;17.97;61.36
47524;BME280;33253;42.144;25.884;2022-10-15T11:02:02;100796.56;;;18.01;59.97
47524;BME280;33253;42.144;25.884;2022-10-15T11:04:32;100789.94;;;18.32;58.71
47524;BME280;33253;42.144;25.884;2022-10-15T11:12:29;100788.59;;;18.74;57.19
47524;BME280;33253;42.144;25.884;2022-10-15T11:31:54;100764.63;;;19.44;54.52
47524;BME280;33253;42.144;25.884;2022-10-15T11:35:07;100675.50;;;19.14;53.79
47524;BME280;33253;42.144;25.884;2022-10-15T11:43:06;100758.59;;;19.54;53.11
47524;BME280;33253;42.144;25.884;2022-10-15T11:45:59;100755.97;;;19.49;51.91
47524;BME280;33253;42.144;25.884;2022-10-15T11:51:59;100753.16;;;19.15;52.40
47524;BME280;33253;42.144;25.884;2022-10-15T11:54:25;100760.06;;;19.05;52.43
47524;BME280;33253;42.144;25.884;2022-10-15T11:56:54;100732.81;;;18.80;53.52
47524;BME280;33253;42.144;25.884;2022-10-15T12:02:33;100759.03;;;18.86;52.65
47524;BME280;33253;42.144;25.884;2022-10-15T12:07:44;100761.63;;;18.85;52.23
47524;BME280;33253;42.144;25.884;2022-10-15T12:15:45;100758.28;;;18.97;51.20
47524;BME280;33253;42.144;25.884;2022-10-15T12:20:51;100750.38;;;18.94;50.85
47524;BME280;33253;42.144;25.884;2022-10-15T12:23:39;100760.03;;;18.99;48.36
47524;BME280;33253;42.144;25.884;2022-10-15T12:26:30;100760.09;;;19.08;49.67
47524;BME280;33253;42.144;25.884;2022-10-15T12:28:58;100725.16;;;19.03;49.36
47524;BME280;33253;42.144;25.884;2022-10-15T12:31:24;100754.06;;;19.22;49.95
47524;BME280;33253;42.144;25.884;2022-10-15T12:33:52;100748.84;;;19.25;49.59
47524;BME280;33253;42.144;25.884;2022-10-15T12:36:22;100756.72;;;19.27;49.18
47524;BME280;33253;42.144;25.884;2022-10-15T12:39:03;100751.53;;;19.33;48.30
47524;BME280;33253;42.144;25.884;2022-10-15T12:41:42;100747.22;;;19.46;49.48
47524;BME280;33253;42.144;25.884;2022-10-15T12:44:25;100746.38;;;19.58;49.42
47524;BME280;33253;42.144;25.884;2022-10-15T12:46:52;100748.13;;;19.54;48.45
47524;BME280;33253;42.144;25.884;2022-10-15T12:52:02;100738.53;;;19.53;47.88
47524;BME280;33253;42.144;25.884;2022-10-15T12:54:50;100744.59;;;19.49;47.95
47524;BME280;33253;42.144;25.884;2022-10-15T13:00:38;100752.41;;;19.43;48.59
47524;BME280;33253;42.144;25.884;2022-10-15T13:05:40;100758.44;;;19.28;48.98
47524;BME280;33253;42.144;25.884;2022-10-15T13:08:12;100765.41;;;19.19;48.89
47524;BME280;33253;42.144;25.884;2022-10-15T13:10:47;100771.50;;;19.15;48.30
47524;BME280;33253;42.144;25.884;2022-10-15T13:13:17;100767.94;;;19.10;47.45
47524;BME280;33253;42.144;25.884;2022-10-15T13:15:49;100775.78;;;19.08;47.91
47524;BME280;33253;42.144;25.884;2022-10-15T13:18:16;100760.03;;;19.02;46.48
47524;BME280;33253;42.144;25.884;2022-10-15T13:20:43;100763.56;;;19.03;46.63
47524;BME280;33253;42.144;25.884;2022-10-15T13:23:30;100768.75;;;19.01;48.05
47524;BME280;33253;42.144;25.884;2022-10-15T13:26:19;100773.16;;;19.10;46.78
47524;BME280;33253;42.144;25.884;2022-10-15T13:28:48;100776.69;;;19.12;47.72
47524;BME280;33253;42.144;25.884;2022-10-15T13:31:35;100781.03;;;19.08;46.05
47524;BME280;33253;42.144;25.884;2022-10-15T13:34:15;100766.22;;;19.09;46.26
47524;BME280;33253;42.144;25.884;2022-10-15T13:36:45;100772.22;;;18.94;46.72
47524;BME280;33253;42.144;25.884;2022-10-15T13:39:38;100775.69;;;18.93;47.68
47524;BME280;33253;42.144;25.884;2022-10-15T13:42:20;100773.94;;;18.94;47.10
47524;BME280;33253;42.144;25.884;2022-10-15T13:47:40;100771.31;;;18.95;46.63
47524;BME280;33253;42.144;25.884;2022-10-15T13:50:24;100676.81;;;18.49;46.62
47524;BME280;33253;42.144;25.884;2022-10-15T13:52:58;100735.44;;;18.80;46.42
47524;BME280;33253;42.144;25.884;2022-10-15T13:55:28;100732.81;;;18.77;46.24
47524;BME280;33253;42.144;25.884;2022-10-15T13:58:03;100768.69;;;18.92;46.82
47524;BME280;33253;42.144;25.884;2022-10-15T14:00:34;100763.47;;;18.95;47.88
47524;BME280;33253;42.144;25.884;2022-10-15T14:03:17;100771.31;;;18.92;49.12
47524;BME280;33253;42.144;25.884;2022-10-15T14:05:45;100772.94;;;18.79;48.54
47524;BME280;33253;42.144;25.884;2022-10-15T14:08:20;100768.53;;;18.76;48.09
47524;BME280;33253;42.144;25.884;2022-10-15T14:10:47;100765.94;;;18.78;48.14
47524;BME280;33253;42.144;25.884;2022-10-15T14:13:12;100762.44;;;18.74;49.11
47524;BME280;33253;42.144;25.884;2022-10-15T14:18:15;100773.84;;;18.86;47.72
47524;BME280;33253;42.144;25.884;2022-10-15T14:20:43;100744.91;;;18.64;47.81
47524;BME280;33253;42.144;25.884;2022-10-15T14:23:23;100772.03;;;18.77;48.50
47524;BME280;33253;42.144;25.884;2022-10-15T14:26:07;100776.41;;;18.81;47.04
47524;BME280;33253;42.144;25.884;2022-10-15T14:28:35;100765.06;;;18.76;47.08
47524;BME280;33253;42.144;25.884;2022-10-15T14:31:01;100781.69;;;18.86;46.50
47524;BME280;33253;42.144;25.884;2022-10-15T14:38:29;100795.63;;;18.82;47.58
47524;BME280;33253;42.144;25.884;2022-10-15T14:41:04;100789.44;;;18.72;46.98
47524;BME280;33253;42.144;25.884;2022-10-15T14:43:37;100792.00;;;18.66;49.09
47524;BME280;33253;42.144;25.884;2022-10-15T14:46:10;100794.59;;;18.64;48.70
47524;BME280;33253;42.144;25.884;2022-10-15T14:48:43;100791.03;;;18.57;48.17
47524;BME280;33253;42.144;25.884;2022-10-15T14:51:18;100791.78;;;18.42;48.86
47524;BME280;33253;42.144;25.884;2022-10-15T14:53:46;100793.47;;;18.39;49.24
47524;BME280;33253;42.144;25.884;2022-10-15T14:56:18;100793.41;;;18.33;50.79